createdAt,value
2023-04-12T00:01:54.147Z,99739.88
2023-04-12T00:06:54.721Z,99733.41
2023-04-12T00:11:53.438Z,99729.44
2023-04-12T00:16:52.418Z,99734.50
2023-04-12T00:21:51.166Z,99725.63
2023-04-12T00:26:51.346Z,99712.59
2023-04-12T00:31:50.181Z,99704.69
2023-04-12T00:36:49.006Z,99702.81
2023-04-12T00:41:47.770Z,99697.53
2023-04-12T00:46:48.452Z,99685.13
2023-04-12T00:51:47.405Z,99682.69
2023-04-12T00:56:47.740Z,99685.31
2023-04-12T01:01:48.105Z,99681.84
2023-04-12T01:07:01.799Z,99678.19
2023-04-12T01:12:15.187Z,99663.84
2023-04-12T01:17:26.498Z,99667.53
2023-04-12T01:22:38.535Z,99666.38
2023-04-12T01:27:47.686Z,99659.81
2023-04-12T01:32:50.894Z,99666.56
2023-04-12T01:37:49.479Z,99668.44
2023-04-12T01:42:50.245Z,99663.81
2023-04-12T01:47:49.172Z,99664.47
2023-04-12T01:53:04.617Z,99666.78
2023-04-12T01:58:06.822Z,99654.09
2023-04-12T02:03:09.121Z,99663.66
2023-04-12T02:08:08.197Z,99668.63
2023-04-12T02:13:08.377Z,99656.16
2023-04-12T02:18:07.440Z,99657.63
2023-04-12T02:23:06.902Z,99653.84
2023-04-12T02:28:06.941Z,99668.06
2023-04-12T02:33:09.672Z,99653.31
2023-04-12T02:38:09.312Z,99655.25
2023-04-12T02:43:11.179Z,99653.44
2023-04-12T02:48:15.535Z,99653.44
2023-04-12T02:53:15.143Z,99650.88
2023-04-12T02:58:16.700Z,99644.19
2023-04-12T03:03:21.987Z,99637.84
2023-04-12T03:08:25.132Z,99642.88
2023-04-12T03:13:27.788Z,99651.16
2023-04-12T03:18:42.587Z,99637.91
2023-04-12T03:23:42.336Z,99637.72
2023-04-12T03:28:48.581Z,99649.22
2023-04-12T03:33:49.479Z,99644.47
2023-04-12T03:38:56.837Z,99644.25
2023-04-12T03:43:56.615Z,99644.50
2023-04-12T03:48:57.057Z,99644.03
2023-04-12T03:53:58.054Z,99656.78
2023-04-12T03:58:57.430Z,99662.16
2023-04-12T04:03:58.404Z,99653.31
2023-04-12T04:08:58.452Z,99658.16
2023-04-12T04:13:59.289Z,99654.03
2023-04-12T04:18:59.676Z,99658.97
2023-04-12T04:24:01.297Z,99667.09
2023-04-12T04:29:06.037Z,99684.44
2023-04-12T04:34:12.295Z,99671.72
2023-04-12T04:39:15.477Z,99681.00
2023-04-12T04:44:16.492Z,99694.22
2023-04-12T04:49:25.436Z,99693.16
2023-04-12T04:54:24.397Z,99693.56
2023-04-12T04:59:23.898Z,99692.66
2023-04-12T05:04:25.719Z,99691.28
2023-04-12T05:09:25.769Z,99689.50
2023-04-12T05:14:37.684Z,99686.22
2023-04-12T05:19:45.452Z,99703.59
2023-04-12T05:24:44.400Z,99704.03
2023-04-12T05:29:43.309Z,99705.06
2023-04-12T05:34:44.248Z,99709.38
2023-04-12T05:39:44.866Z,99716.66
2023-04-12T05:44:47.993Z,99717.69
2023-04-12T05:49:48.651Z,99716.94
2023-04-12T05:54:49.066Z,99707.28
2023-04-12T05:59:49.719Z,99696.44
2023-04-12T06:04:51.619Z,99691.81
2023-04-12T06:09:53.024Z,99684.91
2023-04-12T06:14:54.137Z,99683.47
2023-04-12T06:19:53.249Z,99690.41
2023-04-12T06:24:53.374Z,99706.44
2023-04-12T06:29:53.161Z,99701.88
2023-04-12T06:34:52.033Z,99692.44
2023-04-12T06:39:50.974Z,99702.13
2023-04-12T06:44:51.204Z,99704.56
2023-04-12T06:49:52.794Z,99709.19
2023-04-12T06:54:53.222Z,99698.03
2023-04-12T06:59:53.386Z,99693.81
2023-04-12T07:04:54.036Z,99704.09
2023-04-12T07:09:53.268Z,99694.03
2023-04-12T07:14:53.461Z,99693.78
2023-04-12T07:19:52.313Z,99688.72
2023-04-12T07:24:52.674Z,99692.81
2023-04-12T07:29:54.892Z,99697.78
2023-04-12T07:34:53.966Z,99703.41
2023-04-12T07:39:53.096Z,99710.06
2023-04-12T07:44:53.326Z,99701.88
2023-04-12T07:49:52.020Z,99699.66
2023-04-12T07:54:50.739Z,99704.41
2023-04-12T07:59:53.720Z,99712.59
2023-04-12T08:04:52.465Z,99701.94
2023-04-12T08:09:51.876Z,99707.72
2023-04-12T08:14:50.660Z,99712.16
2023-04-12T08:19:50.791Z,99707.78
2023-04-12T08:24:50.022Z,99709.22
2023-04-12T08:29:48.785Z,99699.84
2023-04-12T08:34:47.524Z,99707.19
2023-04-12T08:39:48.725Z,99701.22
2023-04-12T08:44:47.562Z,99701.22
2023-04-12T08:49:46.476Z,99708.72
2023-04-12T08:54:45.322Z,99710.91
2023-04-12T08:59:48.611Z,99705.09
2023-04-12T09:04:50.529Z,99690.00
2023-04-12T09:09:49.426Z,99693.00
2023-04-12T09:14:49.682Z,99701.34
2023-04-12T09:19:49.270Z,99694.13
2023-04-12T09:24:50.590Z,99685.34
2023-04-12T09:29:52.992Z,99688.59
2023-04-12T09:34:57.170Z,99683.09
2023-04-12T09:40:01.282Z,99683.09
2023-04-12T09:45:03.101Z,99667.47
2023-04-12T09:50:04.659Z,99682.22
2023-04-12T09:55:09.893Z,99689.41
2023-04-12T10:00:17.867Z,99684.84
2023-04-12T10:05:19.786Z,99689.38
2023-04-12T10:10:20.379Z,99688.53
2023-04-12T10:15:22.216Z,99692.72
2023-04-12T10:20:29.606Z,99680.03
2023-04-12T10:25:31.852Z,99683.25
2023-04-12T10:30:33.238Z,99691.50
2023-04-12T10:35:32.676Z,99691.06
2023-04-12T10:40:33.898Z,99683.84
2023-04-12T10:45:40.775Z,99690.56
2023-04-12T10:50:39.635Z,99694.19
2023-04-12T10:55:39.712Z,99690.28
2023-04-12T11:01:18.521Z,99695.06
2023-04-12T11:06:26.415Z,99692.94
2023-04-12T11:11:46.905Z,99682.53
2023-04-12T11:17:25.451Z,99683.94
2023-04-12T11:22:27.803Z,99684.47
2023-04-12T11:27:28.010Z,99682.19
2023-04-12T11:32:28.528Z,99675.28
2023-04-12T11:37:28.962Z,99683.16
2023-04-12T11:42:30.293Z,99678.34
2023-04-12T11:47:29.571Z,99684.16
2023-04-12T11:52:34.471Z,99688.31
2023-04-12T11:57:34.289Z,99688.47
2023-04-12T12:02:41.219Z,99686.66
2023-04-12T12:07:46.541Z,99684.00
2023-04-12T12:13:01.500Z,99687.72
2023-04-12T12:18:02.584Z,99688.13
2023-04-12T12:23:12.365Z,99696.59
2023-04-12T12:28:16.488Z,99701.03
2023-04-12T12:33:28.991Z,99689.72
2023-04-12T12:38:38.156Z,99697.22
2023-04-12T12:43:38.520Z,99701.81
2023-04-12T12:48:40.822Z,99689.78
2023-04-12T12:53:42.519Z,99696.69
2023-04-12T12:58:42.271Z,99688.97
2023-04-12T13:03:41.377Z,99692.31
2023-04-12T13:08:41.640Z,99690.13
2023-04-12T13:13:40.416Z,99686.78
2023-04-12T13:18:39.183Z,99695.19
2023-04-12T13:23:38.371Z,99691.59
2023-04-12T13:28:38.639Z,99692.53
2023-04-12T13:33:37.616Z,99694.91
2023-04-12T13:38:36.668Z,99707.13
2023-04-12T13:43:36.758Z,99719.13
2023-04-12T13:48:37.512Z,99712.06
2023-04-12T13:53:37.058Z,99701.88
2023-04-12T13:58:36.091Z,99709.63
2023-04-12T14:03:36.627Z,99707.94
2023-04-12T14:08:38.357Z,99715.75
2023-04-12T14:13:37.091Z,99729.72
2023-04-12T14:18:38.090Z,99725.84
2023-04-12T14:23:44.076Z,99729.81
2023-04-12T14:28:45.788Z,99721.88
2023-04-12T14:33:48.851Z,99722.66
2023-04-12T14:38:49.809Z,99719.13
2023-04-12T14:43:52.629Z,99722.75
2023-04-12T14:48:53.232Z,99725.47
2023-04-12T14:53:52.286Z,99733.56
2023-04-12T14:58:53.837Z,99739.59
2023-04-12T15:03:55.041Z,99748.56
2023-04-12T15:08:55.222Z,99746.47
2023-04-12T15:13:55.255Z,99752.34
2023-04-12T15:18:56.420Z,99745.81
2023-04-12T15:23:57.694Z,99755.75
2023-04-12T15:28:57.025Z,99752.66
2023-04-12T15:33:57.927Z,99757.00
2023-04-12T15:38:57.041Z,99761.88
2023-04-12T15:43:57.686Z,99757.00
2023-04-12T15:49:01.030Z,99761.88
2023-04-12T15:54:00.321Z,99762.72
2023-04-12T15:59:01.297Z,99777.94
2023-04-12T16:04:03.490Z,99778.66
2023-04-12T16:09:02.902Z,99770.91
2023-04-12T16:14:04.790Z,99771.66
2023-04-12T16:19:05.063Z,99778.22
2023-04-12T16:24:04.994Z,99787.03
2023-04-12T16:29:11.472Z,99793.03
2023-04-12T16:34:11.667Z,99800.13
2023-04-12T16:39:11.500Z,99806.28
2023-04-12T16:44:10.902Z,99815.66
2023-04-12T16:49:12.050Z,99811.34
2023-04-12T16:54:13.236Z,99807.44
2023-04-12T16:59:15.524Z,99822.53
2023-04-12T17:04:16.199Z,99837.75
2023-04-12T17:09:15.172Z,99844.09
2023-04-12T17:14:15.060Z,99846.06
2023-04-12T17:19:17.963Z,99848.91
2023-04-12T17:24:17.044Z,99854.38
2023-04-12T17:29:15.986Z,99850.72
2023-04-12T17:34:16.911Z,99852.78
2023-04-12T17:39:16.384Z,99849.97
2023-04-12T17:44:15.402Z,99862.19
2023-04-12T17:49:15.200Z,99858.97
2023-04-12T17:54:15.694Z,99863.66
2023-04-12T17:59:14.798Z,99863.66
2023-04-12T18:04:13.733Z,99878.22
2023-04-12T18:09:14.689Z,99872.09
2023-04-12T18:14:14.795Z,99878.47
2023-04-12T18:19:16.322Z,99886.78
2023-04-12T18:24:15.712Z,99885.38
2023-04-12T18:29:17.624Z,99885.72
2023-04-12T18:34:19.109Z,99890.66
2023-04-12T18:39:18.290Z,99886.19
2023-04-12T18:44:22.993Z,99886.47
2023-04-12T18:49:22.114Z,99897.75
2023-04-12T18:54:21.247Z,99909.78
2023-04-12T18:59:22.385Z,99918.19
2023-04-12T19:04:21.401Z,99930.94
2023-04-12T19:09:20.294Z,99938.38
2023-04-12T19:14:19.057Z,99940.91
2023-04-12T19:19:19.295Z,99939.09
2023-04-12T19:24:18.160Z,99939.81
2023-04-12T19:29:16.964Z,99946.28
2023-04-12T19:34:17.979Z,99952.75
2023-04-12T19:39:20.044Z,99958.88
2023-04-12T19:44:18.956Z,99950.88
2023-04-12T19:49:17.757Z,99965.50
2023-04-12T19:54:18.927Z,99960.22
2023-04-12T19:59:19.127Z,99963.03
2023-04-12T20:04:20.451Z,99971.22
2023-04-12T20:09:20.000Z,99972.91
2023-04-12T20:14:20.584Z,99974.66
2023-04-12T20:19:22.115Z,99979.72
2023-04-12T20:24:25.702Z,99992.47
2023-04-12T20:29:25.957Z,99988.38
2023-04-12T20:34:26.688Z,99983.00
2023-04-12T20:39:25.590Z,99985.88
2023-04-12T20:44:26.140Z,100000.22
2023-04-12T20:49:26.378Z,100013.28
2023-04-12T20:54:25.644Z,100016.69
2023-04-12T20:59:26.118Z,100019.19
2023-04-12T21:04:27.513Z,100032.16
2023-04-12T21:09:26.829Z,100020.66
2023-04-12T21:14:29.935Z,100031.44
2023-04-12T21:19:28.862Z,100032.56
2023-04-12T21:24:27.643Z,100030.47
2023-04-12T21:29:26.466Z,100025.75
2023-04-12T21:34:26.588Z,100037.72
2023-04-12T21:39:25.345Z,100042.78
2023-04-12T21:44:24.320Z,100035.25
2023-04-12T21:49:23.314Z,100030.66
2023-04-12T21:54:23.555Z,100045.88
2023-04-12T21:59:22.805Z,100039.88
2023-04-12T22:04:21.647Z,100051.38
2023-04-12T22:09:20.619Z,100047.97
2023-04-12T22:14:21.062Z,100038.84
2023-04-12T22:19:20.077Z,100048.94
2023-04-12T22:24:18.941Z,100044.56
2023-04-12T22:29:17.843Z,100049.50
2023-04-12T22:34:18.147Z,100060.75
2023-04-12T22:39:18.385Z,100047.47
2023-04-12T22:44:18.536Z,100047.69
2023-04-12T22:49:20.065Z,100051.16
2023-04-12T22:54:19.458Z,100053.75
2023-04-12T22:59:20.001Z,100058.50
2023-04-12T23:04:20.400Z,100060.00
2023-04-12T23:09:19.793Z,100051.50
2023-04-12T23:14:18.781Z,100056.06
2023-04-12T23:19:17.536Z,100066.59
2023-04-12T23:24:18.510Z,100075.75
2023-04-12T23:29:17.390Z,100077.72
2023-04-12T23:34:16.630Z,100077.16
2023-04-12T23:39:15.399Z,100073.91
2023-04-12T23:44:15.626Z,100078.88
2023-04-12T23:49:14.476Z,100095.91
2023-04-12T23:54:13.156Z,100098.06
2023-04-12T23:59:12.364Z,100093.38
